createdAt,value
2022-07-30T00:00:25.176Z,98.10
2022-07-30T00:01:22.195Z,98.19
2022-07-30T00:02:22.155Z,98.19
2022-07-30T00:03:22.162Z,98.38
2022-07-30T00:04:22.122Z,98.38
2022-07-30T00:05:22.118Z,98.14
2022-07-30T00:06:22.095Z,98.14
2022-07-30T00:07:22.085Z,98.05
2022-07-30T00:08:22.085Z,98.14
2022-07-30T00:09:22.057Z,97.85
2022-07-30T00:10:22.042Z,97.95
2022-07-30T00:11:25.917Z,97.95
2022-07-30T00:12:22.017Z,97.76
2022-07-30T00:13:22.011Z,98.14
2022-07-30T00:14:21.989Z,98.05
2022-07-30T00:15:21.974Z,98.43
2022-07-30T00:16:22.021Z,97.95
2022-07-30T00:17:21.948Z,98.62
2022-07-30T00:18:22.451Z,98.72
2022-07-30T00:19:21.921Z,98.72
2022-07-30T00:20:21.910Z,98.52
2022-07-30T00:21:35.745Z,98.67
2022-07-30T00:22:21.883Z,98.52
2022-07-30T00:23:21.868Z,98.52
2022-07-30T00:24:21.858Z,98.91
2022-07-30T00:25:21.843Z,98.62
2022-07-30T00:26:21.830Z,98.72
2022-07-30T00:27:21.816Z,98.62
2022-07-30T00:28:21.804Z,98.91
2022-07-30T00:29:21.800Z,99.10
2022-07-30T00:30:21.778Z,98.91
2022-07-30T00:31:21.781Z,98.72
2022-07-30T00:32:21.750Z,98.91
2022-07-30T00:33:21.739Z,98.91
2022-07-30T00:34:21.728Z,98.91
2022-07-30T00:35:21.709Z,99.10
2022-07-30T00:36:21.696Z,99.01
2022-07-30T00:37:21.684Z,98.91
2022-07-30T00:38:21.668Z,99.58
2022-07-30T00:39:21.663Z,99.01
2022-07-30T00:40:21.642Z,99.48
2022-07-30T00:41:21.631Z,99.10
2022-07-30T00:42:21.620Z,99.29
2022-07-30T00:43:21.606Z,99.19
2022-07-30T00:44:21.589Z,99.19
2022-07-30T00:45:21.578Z,99.10
2022-07-30T00:46:21.620Z,99.10
2022-07-30T00:47:21.551Z,99.10
2022-07-30T00:48:21.537Z,99.19
2022-07-30T00:49:21.559Z,99.87
2022-07-30T00:50:21.629Z,99.87
2022-07-30T00:51:21.497Z,99.43
2022-07-30T00:52:21.484Z,99.99
2022-07-30T00:53:21.473Z,99.91
2022-07-30T00:54:21.455Z,99.91
2022-07-30T00:55:21.445Z,99.99
2022-07-30T00:56:21.429Z,99.99
2022-07-30T00:57:21.418Z,99.99
2022-07-30T00:58:21.403Z,99.99
2022-07-30T00:59:21.390Z,99.82
2022-07-30T01:00:21.376Z,99.99
2022-07-30T01:01:21.414Z,99.99
2022-07-30T01:02:21.379Z,99.99
2022-07-30T01:03:21.336Z,99.99
2022-07-30T01:04:21.324Z,99.99
2022-07-30T01:05:21.308Z,99.99
2022-07-30T01:06:21.294Z,99.99
2022-07-30T01:07:21.283Z,99.99
2022-07-30T01:08:21.268Z,99.99
2022-07-30T01:09:21.257Z,99.99
2022-07-30T01:10:21.240Z,99.99
2022-07-30T01:11:21.229Z,99.99
2022-07-30T01:12:21.217Z,99.99
2022-07-30T01:13:21.206Z,99.99
2022-07-30T01:14:21.185Z,99.99
2022-07-30T01:15:21.172Z,99.99
2022-07-30T01:16:21.201Z,99.99
2022-07-30T01:17:21.145Z,99.99
2022-07-30T01:18:21.131Z,99.99
2022-07-30T01:19:21.117Z,99.99
2022-07-30T01:20:21.102Z,99.99
2022-07-30T01:21:21.098Z,99.99
2022-07-30T01:22:21.074Z,99.99
2022-07-30T01:23:21.063Z,99.99
2022-07-30T01:24:21.051Z,99.99
2022-07-30T01:25:21.036Z,99.99
2022-07-30T01:26:21.019Z,99.99
2022-07-30T01:27:21.017Z,99.99
2022-07-30T01:28:20.993Z,99.99
2022-07-30T01:29:20.981Z,99.99
2022-07-30T01:30:20.985Z,99.99
2022-07-30T01:31:21.049Z,99.99
2022-07-30T01:32:20.935Z,99.99
2022-07-30T01:33:20.925Z,99.99
2022-07-30T01:34:20.911Z,99.99
2022-07-30T01:35:20.897Z,99.99
2022-07-30T01:36:20.887Z,99.99
2022-07-30T01:37:20.887Z,99.99
2022-07-30T01:38:20.852Z,99.99
2022-07-30T01:39:20.839Z,99.99
2022-07-30T01:40:20.825Z,99.99
2022-07-30T01:41:20.813Z,99.99
2022-07-30T01:42:20.795Z,99.99
2022-07-30T01:43:20.784Z,99.99
2022-07-30T01:44:24.049Z,99.99
2022-07-30T01:45:20.853Z,99.99
2022-07-30T01:46:20.841Z,99.99
2022-07-30T01:47:20.728Z,99.99
2022-07-30T01:48:20.713Z,99.99
2022-07-30T01:49:20.742Z,99.99
2022-07-30T01:50:20.683Z,99.99
2022-07-30T01:51:20.670Z,99.99
2022-07-30T01:52:20.658Z,99.99
2022-07-30T01:53:20.645Z,99.99
2022-07-30T01:54:20.628Z,99.99
2022-07-30T01:55:20.616Z,99.99
2022-07-30T01:56:24.827Z,99.99
2022-07-30T01:57:20.585Z,99.99
2022-07-30T01:58:20.569Z,99.99
2022-07-30T01:59:20.558Z,99.99
2022-07-30T02:00:20.544Z,99.99
2022-07-30T02:01:20.583Z,99.99
2022-07-30T02:02:20.515Z,99.99
2022-07-30T02:03:21.297Z,99.99
2022-07-30T02:04:20.486Z,99.99
2022-07-30T02:05:20.472Z,99.99
2022-07-30T02:06:20.468Z,99.99
2022-07-30T02:07:20.446Z,99.99
2022-07-30T02:08:20.431Z,99.99
2022-07-30T02:09:20.419Z,99.99
2022-07-30T02:10:20.402Z,99.99
2022-07-30T02:11:20.388Z,99.99
2022-07-30T02:12:20.372Z,99.99
2022-07-30T02:13:20.361Z,99.99
2022-07-30T02:14:20.343Z,99.99
2022-07-30T02:15:20.333Z,99.99
2022-07-30T02:16:20.363Z,99.99
2022-07-30T02:17:20.303Z,99.99
2022-07-30T02:18:21.394Z,99.99
2022-07-30T02:19:20.275Z,99.99
2022-07-30T02:20:20.264Z,99.99
2022-07-30T02:21:20.251Z,99.99
2022-07-30T02:22:20.232Z,99.99
2022-07-30T02:23:20.230Z,99.99
2022-07-30T02:24:20.204Z,99.99
2022-07-30T02:25:20.191Z,99.99
2022-07-30T02:26:20.173Z,99.99
2022-07-30T02:27:20.164Z,99.99
2022-07-30T02:28:20.148Z,99.99
2022-07-30T02:29:20.133Z,99.99
2022-07-30T02:30:20.130Z,99.99
2022-07-30T02:31:20.164Z,99.99
2022-07-30T02:32:20.089Z,99.99
2022-07-30T02:33:20.083Z,99.99
2022-07-30T02:34:20.059Z,99.99
2022-07-30T02:35:20.048Z,99.99
2022-07-30T02:36:20.050Z,99.99
2022-07-30T02:37:20.019Z,99.99
2022-07-30T02:38:20.001Z,99.99
2022-07-30T02:39:20.006Z,99.99
2022-07-30T02:40:19.977Z,99.99
2022-07-30T02:41:19.962Z,99.99
2022-07-30T02:42:19.948Z,99.99
2022-07-30T02:43:19.933Z,99.99
2022-07-30T02:44:19.916Z,99.99
2022-07-30T02:45:19.903Z,99.99
2022-07-30T02:46:19.981Z,99.99
2022-07-30T02:47:19.876Z,99.99
2022-07-30T02:48:34.694Z,99.99
2022-07-30T02:49:19.884Z,99.99
2022-07-30T02:50:19.833Z,99.99
2022-07-30T02:51:19.819Z,99.99
2022-07-30T02:52:19.806Z,99.99
2022-07-30T02:53:19.794Z,99.99
2022-07-30T02:54:19.775Z,99.99
2022-07-30T02:55:19.763Z,99.99
2022-07-30T02:56:19.746Z,99.99
2022-07-30T02:57:19.732Z,99.99
2022-07-30T02:58:19.743Z,99.99
2022-07-30T02:59:19.711Z,99.99
2022-07-30T03:00:19.691Z,99.99
2022-07-30T03:01:19.738Z,99.99
2022-07-30T03:02:26.510Z,99.99
2022-07-30T03:03:19.649Z,99.99
2022-07-30T03:04:19.633Z,99.99
2022-07-30T03:05:19.622Z,99.99
2022-07-30T03:06:19.602Z,99.99
2022-07-30T03:07:19.590Z,99.99
2022-07-30T03:08:19.577Z,99.99
2022-07-30T03:09:19.578Z,99.99
2022-07-30T03:10:19.545Z,99.99
2022-07-30T03:11:19.533Z,99.99
2022-07-30T03:12:19.520Z,99.99
2022-07-30T03:13:19.505Z,99.99
2022-07-30T03:14:19.487Z,99.99
2022-07-30T03:15:19.478Z,99.99
2022-07-30T03:16:19.512Z,99.99
2022-07-30T03:17:19.448Z,99.99
2022-07-30T03:18:19.433Z,99.99
2022-07-30T03:19:19.419Z,99.99
2022-07-30T03:20:19.408Z,99.99
2022-07-30T03:21:19.390Z,99.99
2022-07-30T03:22:19.375Z,99.99
2022-07-30T03:23:19.363Z,99.99
2022-07-30T03:24:19.345Z,99.99
2022-07-30T03:25:19.335Z,99.99
2022-07-30T03:26:19.318Z,99.99
2022-07-30T03:27:19.304Z,99.99
2022-07-30T03:28:19.292Z,99.99
2022-07-30T03:29:21.679Z,99.99
2022-07-30T03:30:19.257Z,99.99
2022-07-30T03:31:19.345Z,99.99
2022-07-30T03:32:19.229Z,99.99
2022-07-30T03:33:19.218Z,99.99
2022-07-30T03:34:19.202Z,99.99
2022-07-30T03:35:20.239Z,99.99
2022-07-30T03:36:19.172Z,99.99
2022-07-30T03:37:19.159Z,99.99
2022-07-30T03:38:19.143Z,99.99
2022-07-30T03:39:19.135Z,99.99
2022-07-30T03:40:19.114Z,99.99
2022-07-30T03:41:19.107Z,99.99
2022-07-30T03:42:19.085Z,99.99
2022-07-30T03:43:33.045Z,99.99
2022-07-30T03:44:19.057Z,99.99
2022-07-30T03:45:19.047Z,99.99
2022-07-30T03:46:19.088Z,99.99
2022-07-30T03:47:19.023Z,99.99
2022-07-30T03:48:19.001Z,99.99
2022-07-30T03:49:19.057Z,99.99
2022-07-30T03:50:18.971Z,99.99
2022-07-30T03:51:18.957Z,99.99
2022-07-30T03:52:18.948Z,99.99
2022-07-30T03:53:18.929Z,99.99
2022-07-30T03:54:18.916Z,99.99
2022-07-30T03:55:18.902Z,99.99
2022-07-30T03:56:18.892Z,99.99
2022-07-30T03:57:20.456Z,99.99
2022-07-30T03:58:18.855Z,99.99
2022-07-30T03:59:18.842Z,99.99
2022-07-30T04:00:18.826Z,99.99
2022-07-30T04:01:18.884Z,99.99
2022-07-30T04:02:18.798Z,99.99
2022-07-30T04:03:18.860Z,99.99
2022-07-30T04:04:18.766Z,99.99
2022-07-30T04:05:18.761Z,99.99
2022-07-30T04:06:18.742Z,99.99
2022-07-30T04:07:18.727Z,99.99
2022-07-30T04:08:18.712Z,99.99
2022-07-30T04:09:18.697Z,99.99
2022-07-30T04:10:18.680Z,99.99
2022-07-30T04:11:18.667Z,99.99
2022-07-30T04:12:18.657Z,99.99
2022-07-30T04:13:18.644Z,99.99
2022-07-30T04:14:18.652Z,99.99
2022-07-30T04:16:15.832Z,99.99
2022-07-30T04:16:41.008Z,99.99
2022-07-30T04:17:18.706Z,99.99
2022-07-30T04:18:18.566Z,99.99
2022-07-30T04:19:18.554Z,99.99
2022-07-30T04:20:18.536Z,99.99
2022-07-30T04:21:18.523Z,99.99
2022-07-30T04:22:18.509Z,99.99
2022-07-30T04:23:18.493Z,99.99
2022-07-30T04:24:18.478Z,99.99
2022-07-30T04:25:24.300Z,99.99
2022-07-30T04:26:18.451Z,99.99
2022-07-30T04:27:18.436Z,99.99
2022-07-30T04:28:18.428Z,99.99
2022-07-30T04:29:23.974Z,99.99
2022-07-30T04:30:18.389Z,99.99
2022-07-30T04:31:18.409Z,99.99
2022-07-30T04:32:18.365Z,99.99
2022-07-30T04:33:18.348Z,99.99
2022-07-30T04:34:18.335Z,99.99
2022-07-30T04:35:23.822Z,99.99
2022-07-30T04:36:18.305Z,99.99
2022-07-30T04:37:18.292Z,99.99
2022-07-30T04:38:18.274Z,99.99
2022-07-30T04:39:18.265Z,99.99
2022-07-30T04:40:18.249Z,99.99
2022-07-30T04:41:18.233Z,99.99
2022-07-30T04:42:18.219Z,99.99
2022-07-30T04:43:18.205Z,99.99
2022-07-30T04:44:18.187Z,99.99
2022-07-30T04:45:18.178Z,99.99
2022-07-30T04:46:18.179Z,99.99
2022-07-30T04:47:18.144Z,99.99
2022-07-30T04:48:18.132Z,99.99
2022-07-30T04:49:18.153Z,99.99
2022-07-30T04:50:18.103Z,99.99
2022-07-30T04:51:18.089Z,99.99
2022-07-30T04:52:18.074Z,99.99
2022-07-30T04:53:18.065Z,99.99
2022-07-30T04:54:18.044Z,99.99
2022-07-30T04:55:18.031Z,99.99
2022-07-30T04:56:18.016Z,99.99
2022-07-30T04:57:18.001Z,99.99
2022-07-30T04:58:17.988Z,99.99
2022-07-30T04:59:17.975Z,99.99
2022-07-30T05:00:17.966Z,99.99
2022-07-30T05:01:17.968Z,99.99
2022-07-30T05:02:18.006Z,99.99
2022-07-30T05:03:17.920Z,99.99
2022-07-30T05:04:17.901Z,99.99
2022-07-30T05:05:17.910Z,99.99
2022-07-30T05:06:17.871Z,99.99
2022-07-30T05:07:17.856Z,99.99
2022-07-30T05:08:17.843Z,99.99
2022-07-30T05:09:17.828Z,99.99
2022-07-30T05:10:17.815Z,99.99
2022-07-30T05:11:17.799Z,99.99
2022-07-30T05:12:17.786Z,99.99
2022-07-30T05:13:17.772Z,99.99
2022-07-30T05:14:17.758Z,99.99
2022-07-30T05:15:17.745Z,99.99
2022-07-30T05:16:17.891Z,99.99
2022-07-30T05:17:17.720Z,99.99
2022-07-30T05:18:17.702Z,99.99
2022-07-30T05:19:17.686Z,99.99
2022-07-30T05:20:17.674Z,99.99
2022-07-30T05:21:17.659Z,99.99
2022-07-30T05:22:17.646Z,99.99
2022-07-30T05:23:17.632Z,99.99
2022-07-30T05:24:17.617Z,99.99
2022-07-30T05:25:17.602Z,99.99
2022-07-30T05:26:17.594Z,99.99
2022-07-30T05:27:17.577Z,99.99
2022-07-30T05:28:17.564Z,99.99
2022-07-30T05:29:19.453Z,99.99
2022-07-30T05:30:17.532Z,99.99
2022-07-30T05:31:17.589Z,99.99
2022-07-30T05:32:17.506Z,99.99
2022-07-30T05:33:17.490Z,99.99
2022-07-30T05:34:17.480Z,99.99
2022-07-30T05:35:17.462Z,99.99
2022-07-30T05:36:17.449Z,99.99
2022-07-30T05:37:17.437Z,99.99
2022-07-30T05:38:17.423Z,99.99
2022-07-30T05:39:17.408Z,99.99
2022-07-30T05:40:17.394Z,99.99
2022-07-30T05:41:30.690Z,99.99
2022-07-30T05:42:17.366Z,99.99
2022-07-30T05:43:17.365Z,99.99
2022-07-30T05:44:21.977Z,99.99
2022-07-30T05:45:17.350Z,99.99
2022-07-30T05:46:17.373Z,99.99
2022-07-30T05:47:17.300Z,99.99
2022-07-30T05:48:17.290Z,99.99
2022-07-30T05:49:17.337Z,99.99
2022-07-30T05:50:17.260Z,99.99
2022-07-30T05:51:17.248Z,99.99
2022-07-30T05:52:17.232Z,99.99
2022-07-30T05:53:17.221Z,99.99
2022-07-30T05:54:17.207Z,99.99
2022-07-30T05:55:17.189Z,99.99
2022-07-30T05:56:17.178Z,99.99
2022-07-30T05:57:17.164Z,99.99
2022-07-30T05:58:17.151Z,99.99
2022-07-30T05:59:17.150Z,99.99
2022-07-30T06:00:17.129Z,99.99
2022-07-30T06:01:17.160Z,99.99
2022-07-30T06:02:17.098Z,99.99
2022-07-30T06:03:17.085Z,99.99
2022-07-30T06:04:17.120Z,99.99
2022-07-30T06:05:17.058Z,99.99
2022-07-30T06:06:22.427Z,99.99
2022-07-30T06:07:17.031Z,99.99
2022-07-30T06:08:17.021Z,99.99
2022-07-30T06:09:17.011Z,99.99
2022-07-30T06:10:16.991Z,99.99
2022-07-30T06:11:16.978Z,99.99
2022-07-30T06:12:16.965Z,99.99
2022-07-30T06:13:16.980Z,99.99
2022-07-30T06:14:16.938Z,99.99
2022-07-30T06:15:20.556Z,99.99
2022-07-30T06:16:16.975Z,99.99
2022-07-30T06:17:16.899Z,99.99
2022-07-30T06:18:16.889Z,99.99
2022-07-30T06:19:19.764Z,99.99
2022-07-30T06:20:26.068Z,99.99
2022-07-30T06:22:25.820Z,99.99
2022-07-30T06:23:21.327Z,99.99
2022-07-30T06:25:25.880Z,99.99
2022-07-30T06:26:25.771Z,99.99
2022-07-30T06:28:39.402Z,99.99
2022-07-30T06:29:31.200Z,99.99
2022-07-30T06:31:24.126Z,99.99
2022-07-30T06:32:24.086Z,99.99
2022-07-30T06:34:28.056Z,99.99
2022-07-30T06:35:28.016Z,99.99
2022-07-30T06:37:58.738Z,99.99
2022-07-30T06:38:33.461Z,99.99
2022-07-30T06:40:37.907Z,99.99
2022-07-30T06:41:37.888Z,99.99
2022-07-30T06:43:42.376Z,99.99
2022-07-30T06:44:42.343Z,99.99
2022-07-30T06:46:46.371Z,99.99
2022-07-30T06:47:46.312Z,99.99
2022-07-30T06:49:50.287Z,99.16
2022-07-30T06:50:50.256Z,99.26
2022-07-30T06:52:54.749Z,99.35
2022-07-30T06:53:54.711Z,98.77
2022-07-30T06:56:00.573Z,98.58
2022-07-30T06:56:59.435Z,98.05
2022-07-30T06:59:03.126Z,97.09
2022-07-30T07:00:03.098Z,96.99
2022-07-30T07:01:56.060Z,96.80
2022-07-30T07:02:55.982Z,96.42
2022-07-30T07:05:00.459Z,96.08
2022-07-30T07:06:00.426Z,95.94
2022-07-30T07:08:04.898Z,95.50
2022-07-30T07:09:04.860Z,95.02
2022-07-30T07:11:09.352Z,95.12
2022-07-30T07:12:09.335Z,94.87
2022-07-30T07:14:13.795Z,94.10
2022-07-30T07:15:13.765Z,93.81
2022-07-30T07:17:19.315Z,92.90
2022-07-30T07:18:19.207Z,92.99
2022-07-30T07:20:23.192Z,92.13
2022-07-30T07:21:23.163Z,91.93
2022-07-30T07:23:41.797Z,90.97
2022-07-30T07:24:27.589Z,90.88
2022-07-30T07:26:31.555Z,90.20
2022-07-30T07:27:31.532Z,89.95
2022-07-30T07:29:35.530Z,89.57
2022-07-30T07:30:35.602Z,89.18
2022-07-30T07:32:39.502Z,88.51
2022-07-30T07:33:39.493Z,88.07
2022-07-30T07:35:49.718Z,86.43
2022-07-30T07:36:43.920Z,86.14
2022-07-30T07:38:47.928Z,85.50
2022-07-30T07:39:47.900Z,84.93
2022-07-30T07:41:48.769Z,83.77
2022-07-30T07:42:42.269Z,82.32
2022-07-30T07:44:46.775Z,82.03
2022-07-30T07:45:46.757Z,81.74
2022-07-30T07:47:51.973Z,81.40
2022-07-30T07:48:50.725Z,80.91
2022-07-30T07:50:59.647Z,79.37
2022-07-30T07:51:54.629Z,79.31
2022-07-30T07:54:19.797Z,79.12
2022-07-30T07:54:58.582Z,77.90
2022-07-30T07:57:04.267Z,77.13
2022-07-30T07:58:02.544Z,76.64
2022-07-30T08:00:08.026Z,76.06
2022-07-30T08:01:08.049Z,76.35
2022-07-30T08:03:11.990Z,75.91
2022-07-30T08:04:11.965Z,76.10
2022-07-30T08:06:16.462Z,75.23
2022-07-30T08:07:16.434Z,74.27
2022-07-30T08:09:20.456Z,74.21
2022-07-30T08:10:20.480Z,73.43
2022-07-30T08:12:25.355Z,71.98
2022-07-30T08:13:48.835Z,71.78
2022-07-30T08:15:30.769Z,71.88
2022-07-30T08:16:30.772Z,71.98
2022-07-30T08:18:34.748Z,71.50
2022-07-30T08:19:34.714Z,71.88
2022-07-30T08:21:29.120Z,71.98
2022-07-30T08:22:29.089Z,71.78
2022-07-30T08:24:33.078Z,70.95
2022-07-30T08:25:33.053Z,70.37
2022-07-30T08:27:37.548Z,69.89
2022-07-30T08:28:37.534Z,69.59
2022-07-30T08:30:43.024Z,69.59
2022-07-30T08:31:42.986Z,68.82
2022-07-30T08:33:47.009Z,68.43
2022-07-30T08:34:46.951Z,67.79
2022-07-30T08:36:51.443Z,66.92
2022-07-30T08:37:51.427Z,66.43
2022-07-30T08:39:56.899Z,65.89
2022-07-30T08:40:56.873Z,65.05
2022-07-30T08:43:01.353Z,64.01
2022-07-30T08:44:01.346Z,62.95
2022-07-30T08:46:05.850Z,61.74
2022-07-30T08:47:05.806Z,60.97
2022-07-30T08:49:11.383Z,59.76
2022-07-30T08:50:09.771Z,58.72
2022-07-30T08:52:14.799Z,58.07
2022-07-30T08:53:14.788Z,57.29
2022-07-30T08:55:18.792Z,56.84
2022-07-30T08:56:18.763Z,56.15
2022-07-30T08:58:22.763Z,54.50
2022-07-30T08:59:22.726Z,54.43
2022-07-30T09:01:16.139Z,53.94
2022-07-30T09:02:16.112Z,53.55
2022-07-30T09:04:21.590Z,53.11
2022-07-30T09:05:21.560Z,52.92
2022-07-30T09:07:25.550Z,51.46
2022-07-30T09:08:25.538Z,51.82
2022-07-30T09:10:30.032Z,52.28
2022-07-30T09:11:30.006Z,52.45
2022-07-30T09:13:34.036Z,52.40
2022-07-30T09:14:34.004Z,52.37
2022-07-30T09:16:39.487Z,53.03
2022-07-30T09:17:39.462Z,53.52
2022-07-30T09:19:43.468Z,52.74
2022-07-30T09:20:43.440Z,52.37
2022-07-30T09:22:47.941Z,51.07
2022-07-30T09:23:51.114Z,50.87
2022-07-30T09:25:51.913Z,49.44
2022-07-30T09:26:51.897Z,49.63
2022-07-30T09:28:57.367Z,49.73
2022-07-30T09:29:57.345Z,49.83
2022-07-30T09:31:50.767Z,49.76
2022-07-30T09:32:50.757Z,49.46
2022-07-30T09:34:54.754Z,47.49
2022-07-30T09:35:54.731Z,46.80
2022-07-30T09:38:02.955Z,46.78
2022-07-30T09:38:59.218Z,46.27
2022-07-30T09:41:12.212Z,47.10
2022-07-30T09:42:04.960Z,48.15
2022-07-30T09:44:09.199Z,48.07
2022-07-30T09:45:09.165Z,47.90
2022-07-30T09:47:14.641Z,46.49
2022-07-30T09:48:14.629Z,45.95
2022-07-30T09:50:29.966Z,45.29
2022-07-30T09:51:24.005Z,44.24
2022-07-30T09:53:24.573Z,42.97
2022-07-30T09:54:25.336Z,42.99
2022-07-30T09:56:29.962Z,42.42
2022-07-30T09:57:29.012Z,42.13
2022-07-30T09:59:35.062Z,42.50
2022-07-30T10:00:32.999Z,42.29
2022-07-30T10:02:37.480Z,42.77
2022-07-30T10:03:42.287Z,42.77
2022-07-30T10:05:41.454Z,42.73
2022-07-30T10:06:42.041Z,43.22
2022-07-30T10:08:46.473Z,43.00
2022-07-30T10:09:47.042Z,43.00
2022-07-30T10:11:40.347Z,42.80
2022-07-30T10:12:40.307Z,42.32
2022-07-30T10:14:44.784Z,42.34
2022-07-30T10:15:44.761Z,41.46
2022-07-30T10:17:49.236Z,41.38
2022-07-30T10:18:49.227Z,41.21
2022-07-30T10:20:53.749Z,39.28
2022-07-30T10:21:53.704Z,39.00
2022-07-30T10:23:57.776Z,39.00
2022-07-30T10:24:57.731Z,38.81
2022-07-30T10:27:06.171Z,38.04
2022-07-30T10:28:03.309Z,38.04
2022-07-30T10:30:08.686Z,37.18
2022-07-30T10:31:47.183Z,37.27
2022-07-30T10:33:34.614Z,36.40
2022-07-30T10:34:13.143Z,35.71
2022-07-30T10:36:17.643Z,35.73
2022-07-30T10:37:17.646Z,36.04
2022-07-30T10:39:23.137Z,35.68
2022-07-30T10:40:24.041Z,35.49
2022-07-30T10:42:28.577Z,34.51
2022-07-30T10:43:31.708Z,34.70
2022-07-30T10:45:34.042Z,35.35
2022-07-30T10:46:34.028Z,35.16
2022-07-30T10:48:38.021Z,35.03
2022-07-30T10:49:41.006Z,35.89
2022-07-30T10:51:34.402Z,35.77
2022-07-30T10:52:30.920Z,36.15
2022-07-30T10:54:39.269Z,35.80
2022-07-30T10:55:38.934Z,36.47
2022-07-30T10:57:41.868Z,37.52
2022-07-30T10:58:41.859Z,37.63
2022-07-30T11:00:46.146Z,36.98
2022-07-30T11:01:47.531Z,36.80
2022-07-30T11:02:46.098Z,36.43
2022-07-30T11:03:46.093Z,36.24
2022-07-30T11:04:46.086Z,35.87
2022-07-30T11:05:46.131Z,35.30
2022-07-30T11:06:46.083Z,34.93
2022-07-30T11:07:47.327Z,34.64
2022-07-30T11:08:48.199Z,34.06
2022-07-30T11:10:04.963Z,33.79
2022-07-30T11:10:46.128Z,33.29
2022-07-30T11:12:01.098Z,32.61
2022-07-30T11:12:46.062Z,32.34
2022-07-30T11:13:46.057Z,32.23
2022-07-30T11:14:46.053Z,32.25
2022-07-30T11:15:46.052Z,31.47
2022-07-30T11:16:46.049Z,30.78
2022-07-30T11:17:46.047Z,30.90
2022-07-30T11:18:46.045Z,31.01
2022-07-30T11:19:55.709Z,30.52
2022-07-30T11:20:48.769Z,30.24
2022-07-30T11:21:46.037Z,30.43
2022-07-30T11:22:46.037Z,29.96
2022-07-30T11:23:46.033Z,29.96
2022-07-30T11:24:46.031Z,30.07
2022-07-30T11:25:52.038Z,29.69
2022-07-30T11:26:46.029Z,29.10
2022-07-30T11:27:46.134Z,29.02
2022-07-30T11:28:46.030Z,28.64
2022-07-30T11:29:50.784Z,28.64
2022-07-30T11:30:46.029Z,28.36
2022-07-30T11:31:56.766Z,28.16
2022-07-30T11:32:48.534Z,27.96
2022-07-30T11:33:46.023Z,27.97
2022-07-30T11:34:46.019Z,27.97
2022-07-30T11:35:46.018Z,27.39
2022-07-30T11:36:47.552Z,27.47
2022-07-30T11:37:51.974Z,27.36
2022-07-30T11:38:46.013Z,27.25
2022-07-30T11:39:46.013Z,27.44
2022-07-30T11:40:46.013Z,27.74
2022-07-30T11:41:46.012Z,27.84
2022-07-30T11:42:46.007Z,27.36
2022-07-30T11:43:46.013Z,27.56
2022-07-30T11:44:46.007Z,27.26
2022-07-30T11:45:46.010Z,27.56
2022-07-30T11:46:46.007Z,27.26
2022-07-30T11:47:46.006Z,27.27
2022-07-30T11:48:46.064Z,27.08
2022-07-30T11:49:46.004Z,26.78
2022-07-30T11:50:45.999Z,26.77
2022-07-30T11:51:46.001Z,27.06
2022-07-30T11:52:45.998Z,27.06
2022-07-30T11:53:46.002Z,26.67
2022-07-30T11:54:45.998Z,26.39
2022-07-30T11:55:45.996Z,25.68
2022-07-30T11:56:45.998Z,25.70
2022-07-30T11:57:45.996Z,25.79
2022-07-30T11:58:45.994Z,25.01
2022-07-30T11:59:45.993Z,24.12
2022-07-30T12:00:46.004Z,24.53
2022-07-30T12:01:45.993Z,24.92
2022-07-30T12:02:46.046Z,24.74
2022-07-30T12:03:45.992Z,24.16
2022-07-30T12:04:45.993Z,23.97
2022-07-30T12:05:45.992Z,23.98
2022-07-30T12:06:45.991Z,23.98
2022-07-30T12:07:45.992Z,23.90
2022-07-30T12:08:45.986Z,23.22
2022-07-30T12:09:45.993Z,23.11
2022-07-30T12:10:45.991Z,23.32
2022-07-30T12:11:45.987Z,22.93
2022-07-30T12:12:45.986Z,22.73
2022-07-30T12:13:46.303Z,22.13
2022-07-30T12:14:45.987Z,22.30
2022-07-30T12:15:45.987Z,23.08
2022-07-30T12:16:45.985Z,23.26
2022-07-30T12:17:46.007Z,23.85
2022-07-30T12:18:45.991Z,23.75
2022-07-30T12:19:47.421Z,23.84
2022-07-30T12:20:45.984Z,23.94
2022-07-30T12:21:49.598Z,24.12
2022-07-30T12:22:45.989Z,23.84
2022-07-30T12:23:45.984Z,23.64
2022-07-30T12:24:45.981Z,23.15
2022-07-30T12:25:47.780Z,23.74
2022-07-30T12:26:45.979Z,23.95
2022-07-30T12:27:49.184Z,23.06
2022-07-30T12:28:45.977Z,22.96
2022-07-30T12:29:45.980Z,22.88
2022-07-30T12:30:45.977Z,22.89
2022-07-30T12:31:45.977Z,22.78
2022-07-30T12:32:45.977Z,22.89
2022-07-30T12:33:45.975Z,22.12
2022-07-30T12:34:45.973Z,21.72
2022-07-30T12:35:45.978Z,21.83
2022-07-30T12:36:45.974Z,22.03
2022-07-30T12:37:45.975Z,21.83
2022-07-30T12:38:45.980Z,21.64
2022-07-30T12:39:45.974Z,21.74
2022-07-30T12:40:56.071Z,21.64
2022-07-30T12:42:52.904Z,20.67
2022-07-30T12:43:52.868Z,20.67
2022-07-30T12:44:52.906Z,21.16
2022-07-30T12:45:54.363Z,20.97
2022-07-30T12:46:52.867Z,20.87
2022-07-30T12:47:52.851Z,20.89
2022-07-30T12:48:52.907Z,20.60
2022-07-30T12:49:53.203Z,20.50
2022-07-30T12:50:52.852Z,20.51
2022-07-30T12:51:52.849Z,20.22
2022-07-30T12:52:52.852Z,19.44
2022-07-30T12:53:52.851Z,19.54
2022-07-30T12:54:52.853Z,19.54
2022-07-30T12:55:52.851Z,19.45
2022-07-30T12:56:52.855Z,19.25
2022-07-30T12:57:52.855Z,19.25
2022-07-30T12:58:52.855Z,19.16
2022-07-30T12:59:52.861Z,19.26
2022-07-30T13:00:52.885Z,19.16
2022-07-30T13:01:52.901Z,18.26
2022-07-30T13:02:52.856Z,18.45
2022-07-30T13:03:52.856Z,18.35
2022-07-30T13:05:01.101Z,18.44
2022-07-30T13:05:55.673Z,18.35
2022-07-30T13:06:52.860Z,18.54
2022-07-30T13:07:52.857Z,19.10
2022-07-30T13:08:52.867Z,19.28
2022-07-30T13:09:52.861Z,19.37
2022-07-30T13:10:52.868Z,19.56
2022-07-30T13:11:52.861Z,19.95
2022-07-30T13:12:52.864Z,20.14
2022-07-30T13:13:52.861Z,20.14
2022-07-30T13:14:52.863Z,20.04
2022-07-30T13:15:54.210Z,19.55
2022-07-30T13:16:52.868Z,19.44
2022-07-30T13:17:52.857Z,19.82
2022-07-30T13:18:52.860Z,20.10
2022-07-30T13:19:52.860Z,20.50
2022-07-30T13:20:52.860Z,20.40
2022-07-30T13:21:52.857Z,20.11
2022-07-30T13:22:52.865Z,19.23
2022-07-30T13:23:52.852Z,19.34
2022-07-30T13:24:52.852Z,19.43
2022-07-30T13:25:52.858Z,19.64
2022-07-30T13:26:52.860Z,19.05
2022-07-30T13:27:52.849Z,19.64
2022-07-30T13:28:52.852Z,19.15
2022-07-30T13:29:52.848Z,18.96
2022-07-30T13:30:52.849Z,19.06
2022-07-30T13:31:52.847Z,19.46
2022-07-30T13:32:52.847Z,19.27
2022-07-30T13:33:52.846Z,18.69
2022-07-30T13:34:52.849Z,18.49
2022-07-30T13:35:52.843Z,18.29
2022-07-30T13:36:52.845Z,18.50
2022-07-30T13:37:52.842Z,18.12
2022-07-30T13:38:52.842Z,17.61
2022-07-30T13:39:52.840Z,17.80
2022-07-30T13:40:52.847Z,17.99
2022-07-30T13:41:52.837Z,17.70
2022-07-30T13:42:52.844Z,18.19
2022-07-30T13:43:52.841Z,17.91
2022-07-30T13:44:52.837Z,17.71
2022-07-30T13:45:52.836Z,17.70
2022-07-30T13:46:52.842Z,18.38
2022-07-30T13:47:52.834Z,18.56
2022-07-30T13:48:52.859Z,18.35
2022-07-30T13:49:52.835Z,18.84
2022-07-30T13:50:52.834Z,19.03
2022-07-30T13:51:52.830Z,19.42
2022-07-30T13:52:52.830Z,19.23
2022-07-30T13:53:52.833Z,19.04
2022-07-30T13:54:52.843Z,19.04
2022-07-30T13:55:52.828Z,19.05
2022-07-30T13:56:52.830Z,18.75
2022-07-30T13:57:52.826Z,18.85
2022-07-30T13:58:52.827Z,18.44
2022-07-30T13:59:52.824Z,18.44
2022-07-30T14:00:52.828Z,18.63
2022-07-30T14:01:52.886Z,18.92
2022-07-30T14:02:52.823Z,19.31
2022-07-30T14:03:52.822Z,19.40
2022-07-30T14:04:52.825Z,19.79
2022-07-30T14:05:52.820Z,19.31
2022-07-30T14:06:52.824Z,19.32
2022-07-30T14:07:52.821Z,19.03
2022-07-30T14:08:52.827Z,18.94
2022-07-30T14:09:54.618Z,18.76
2022-07-30T14:10:52.814Z,18.77
2022-07-30T14:11:52.807Z,18.10
2022-07-30T14:12:52.811Z,17.70
2022-07-30T14:13:52.813Z,17.91
2022-07-30T14:14:52.807Z,17.21
2022-07-30T14:15:52.834Z,17.61
2022-07-30T14:16:53.735Z,17.21
2022-07-30T14:17:56.542Z,17.61
2022-07-30T14:18:52.804Z,17.91
2022-07-30T14:19:52.809Z,17.70
2022-07-30T14:20:52.804Z,17.90
2022-07-30T14:21:52.902Z,17.90
2022-07-30T14:22:52.802Z,18.08
2022-07-30T14:23:52.797Z,18.18
2022-07-30T14:24:52.801Z,18.37
2022-07-30T14:25:52.796Z,18.46
2022-07-30T14:26:57.750Z,18.66
2022-07-30T14:27:52.793Z,18.75
2022-07-30T14:28:52.850Z,18.74
2022-07-30T14:29:52.793Z,18.94
2022-07-30T14:30:52.793Z,19.34